Time;durP1;ratioP1;P1;durP2;ratioP2;P2;SDS_P1;SDS_P2;PMS_P1;PMS_P2;Temp;Humidity;BMP_temperature;BMP_pressure;BME280_temperature;BME280_humidity;BME280_pressure;Samples;Min_cycle;Max_cycle;Signal;HPM_P1;HPM_P2
2023/08/04 00:00:09;;;;;;;17.02;10.68;;;;;;;25.83;70.68;94458.22;5059384;28;20175;-77
2023/08/04 00:02:36;;;;;;;15.15;11.10;;;;;;;25.87;70.42;94469.94;5069759;28;20182;-77
2023/08/04 00:05:03;;;;;;;16.60;11.60;;;;;;;25.71;70.30;94447.25;5059308;28;20224;-77
2023/08/04 00:07:28;;;;;;;17.08;10.93;;;;;;;25.83;70.72;94466.31;5064442;28;20179;-76
2023/08/04 00:09:54;;;;;;;15.32;11.43;;;;;;;25.39;71.38;94409.91;5056325;28;20332;-77
2023/08/04 00:12:19;;;;;;;17.15;10.65;;;;;;;25.41;70.96;94413.88;5056763;28;20190;-77
2023/08/04 00:14:48;;;;;;;22.10;10.48;;;;;;;25.63;71.46;94450.72;5058338;28;20163;-76
2023/08/04 00:17:15;;;;;;;13.95;9.95;;;;;;;25.69;71.56;94468.34;5058583;28;20183;-77
2023/08/04 00:19:41;;;;;;;17.30;9.63;;;;;;;24.92;71.58;94350.34;5053898;28;20175;-77
2023/08/04 00:22:07;;;;;;;15.98;10.75;;;;;;;25.67;71.73;94461.69;5056812;28;20185;-77
2023/08/04 00:24:33;;;;;;;14.57;9.73;;;;;;;25.46;71.46;94442.56;5056643;28;20577;-76
2023/08/04 00:27:00;;;;;;;17.55;10.43;;;;;;;25.17;71.98;94397.31;5069261;28;20178;-77
2023/08/04 00:29:26;;;;;;;15.65;9.50;;;;;;;25.28;71.47;94422.88;5068347;28;20182;-77
2023/08/04 00:31:52;;;;;;;14.55;10.20;;;;;;;25.56;71.53;94475.44;5059546;28;20549;-76
2023/08/04 00:34:19;;;;;;;15.15;10.23;;;;;;;25.19;72.09;94408.59;5062116;28;20170;-76
2023/08/04 00:36:46;;;;;;;16.65;10.25;;;;;;;25.52;71.95;94470.97;5064838;28;20653;-77
2023/08/04 00:39:13;;;;;;;11.90;10.27;;;;;;;25.51;72.28;94475.56;5057928;28;20257;-77
2023/08/04 00:41:38;;;;;;;10.10;8.60;;;;;;;25.49;72.52;94471.63;5059411;28;20186;-77
2023/08/04 00:44:04;;;;;;;16.20;10.38;;;;;;;25.47;72.62;94474.63;5060560;28;20653;-77
2023/08/04 00:46:30;;;;;;;14.23;10.70;;;;;;;25.43;72.04;94478.25;5057427;28;20162;-77
2023/08/04 00:48:57;;;;;;;13.95;10.07;;;;;;;25.35;72.47;94460.94;5064534;28;20181;-77
2023/08/04 00:51:23;;;;;;;14.55;10.25;;;;;;;25.38;72.25;94473.00;5062428;28;20186;-77
2023/08/04 00:53:49;;;;;;;12.63;9.20;;;;;;;25.35;72.74;94479.81;5067684;28;20163;-77
2023/08/04 00:56:15;;;;;;;12.10;9.65;;;;;;;25.25;72.83;94468.53;5062529;28;20182;-77
2023/08/04 00:58:40;;;;;;;13.90;9.80;;;;;;;25.30;73.22;94481.84;5061379;28;20183;-77
2023/08/04 01:01:06;;;;;;;14.18;10.15;;;;;;;25.26;72.75;94476.28;5061017;28;20174;-76
2023/08/04 01:03:32;;;;;;;12.15;9.88;;;;;;;25.25;73.38;94477.41;5061016;28;20316;-77
2023/08/04 01:06:14;;;;;;;13.88;9.65;;;;;;;25.18;73.45;94464.38;5062824;28;20178;-77
2023/08/04 01:08:47;;;;;;;15.50;10.23;;;;;;;25.24;72.90;94470.44;5059351;28;20170;-77
2023/08/04 01:11:17;;;;;;;15.32;9.65;;;;;;;25.22;73.58;94477.25;5055082;28;20171;-77
2023/08/04 01:13:44;;;;;;;14.70;10.07;;;;;;;25.12;73.15;94454.06;5054087;28;20186;-77
2023/08/04 01:16:10;;;;;;;15.90;11.07;;;;;;;25.17;73.20;94468.16;5062224;28;20175;-77
2023/08/04 01:18:35;;;;;;;17.55;10.23;;;;;;;25.08;73.22;94451.19;5056935;28;20236;-77
2023/08/04 01:21:04;;;;;;;19.15;10.65;;;;;;;25.09;73.04;94451.97;5058393;28;20182;-77
2023/08/04 01:23:30;;;;;;;20.33;10.05;;;;;;;25.15;73.39;94462.31;5062561;28;20719;-77
2023/08/04 01:25:56;;;;;;;13.73;9.43;;;;;;;25.12;72.81;94471.03;5058149;28;20171;-77
2023/08/04 01:28:23;;;;;;;15.63;9.98;;;;;;;25.07;72.75;94460.41;5059091;28;20239;-77
2023/08/04 01:30:54;;;;;;;15.05;10.15;;;;;;;25.13;73.28;94472.63;5057080;28;20233;-77
2023/08/04 01:33:21;;;;;;;17.08;10.23;;;;;;;25.10;73.52;94470.53;5057882;28;20178;-77
2023/08/04 01:35:46;;;;;;;15.93;9.93;;;;;;;25.05;73.34;94477.97;5058670;28;20612;-77
2023/08/04 01:38:12;;;;;;;20.27;10.63;;;;;;;24.91;73.46;94456.50;5066253;28;20174;-77
2023/08/04 01:40:38;;;;;;;21.02;9.77;;;;;;;24.92;73.66;94460.78;5067394;28;20249;-77
2023/08/04 01:43:06;;;;;;;13.73;9.85;;;;;;;24.96;73.54;94459.06;5063981;28;20262;-77
2023/08/04 01:45:31;;;;;;;17.50;11.63;;;;;;;25.01;73.31;94477.78;5065787;28;20192;-77
2023/08/04 01:47:56;;;;;;;26.17;18.45;;;;;;;24.98;73.27;94481.13;5063118;28;20170;-77
2023/08/04 01:50:22;;;;;;;23.00;15.27;;;;;;;24.96;73.32;94475.22;5061555;28;20186;-77
2023/08/04 01:52:48;;;;;;;33.33;20.35;;;;;;;24.96;73.59;94485.22;5062780;28;20203;-77
2023/08/04 01:55:13;;;;;;;15.80;11.38;;;;;;;24.92;73.88;94482.34;5066173;28;20882;-77
2023/08/04 01:57:39;;;;;;;18.45;14.07;;;;;;;24.89;73.74;94493.72;5070086;28;20259;-77
2023/08/04 02:00:05;;;;;;;22.70;13.60;;;;;;;24.72;74.11;94453.22;5062224;28;21797;-77
2023/08/04 02:02:30;;;;;;;13.93;11.60;;;;;;;24.87;73.93;94485.13;5064020;28;20174;-77
2023/08/04 02:04:56;;;;;;;16.50;12.85;;;;;;;24.77;74.33;94470.03;5067650;28;21854;-77
2023/08/04 02:07:21;;;;;;;14.60;11.15;;;;;;;24.64;74.49;94459.38;5070183;28;20178;-77
2023/08/04 02:09:46;;;;;;;15.95;11.38;;;;;;;24.76;74.35;94478.41;5065659;28;20253;-77
2023/08/04 02:12:12;;;;;;;15.50;10.48;;;;;;;24.70;74.50;94483.16;5065902;28;20571;-77
2023/08/04 02:14:37;;;;;;;19.35;11.88;;;;;;;24.61;74.43;94471.53;5069677;28;20177;-77
2023/08/04 02:17:03;;;;;;;16.10;11.70;;;;;;;24.66;74.88;94489.44;5065363;28;20239;-77
2023/08/04 02:19:28;;;;;;;15.27;10.82;;;;;;;24.57;74.87;94481.31;5064816;28;20738;-77
2023/08/04 02:21:54;;;;;;;29.73;20.40;;;;;;;24.66;74.86;94492.94;5067442;28;20277;-77
2023/08/04 02:24:19;;;;;;;27.67;20.08;;;;;;;24.70;74.70;94495.81;5065221;28;20271;-77
2023/08/04 02:26:44;;;;;;;21.88;15.75;;;;;;;24.55;74.58;94475.47;5060564;28;20257;-77
2023/08/04 02:29:11;;;;;;;15.13;11.63;;;;;;;24.68;74.73;94503.41;5067394;28;20171;-76
2023/08/04 02:31:37;;;;;;;30.00;21.40;;;;;;;24.66;74.40;94497.53;5062940;28;20708;-77
2023/08/04 02:34:03;;;;;;;33.90;22.00;;;;;;;24.67;74.64;94499.13;5065000;28;20224;-76
2023/08/04 02:36:28;;;;;;;35.17;21.42;;;;;;;24.63;75.09;94507.03;5057336;28;20167;-77
2023/08/04 02:38:54;;;;;;;27.85;17.65;;;;;;;24.59;75.18;94507.94;5060619;28;20249;-77
2023/08/04 02:41:19;;;;;;;22.63;15.07;;;;;;;24.59;75.10;94507.94;5057872;28;20201;-77
2023/08/04 02:43:45;;;;;;;19.17;13.20;;;;;;;24.55;75.09;94512.34;5066965;28;20191;-77
2023/08/04 02:46:10;;;;;;;22.13;14.50;;;;;;;24.52;75.14;94504.88;5066754;28;20262;-76
2023/08/04 02:48:36;;;;;;;20.73;13.68;;;;;;;24.53;75.19;94504.59;5064200;28;20193;-77
2023/08/04 02:51:04;;;;;;;18.58;13.73;;;;;;;24.37;75.17;94485.31;5064645;28;20190;-76
2023/08/04 02:53:31;;;;;;;20.23;12.90;;;;;;;24.43;75.46;94494.84;5060889;28;20325;-77
2023/08/04 02:55:57;;;;;;;23.00;13.38;;;;;;;24.47;75.49;94505.03;5067144;28;20570;-76
2023/08/04 02:58:23;;;;;;;25.70;12.90;;;;;;;24.45;75.48;94508.00;5062401;28;20179;-76
2023/08/04 03:00:49;;;;;;;15.65;11.70;;;;;;;24.39;75.51;94498.44;5062200;28;20254;-77
2023/08/04 03:03:15;;;;;;;20.00;12.13;;;;;;;24.40;75.47;94517.00;5058212;28;20738;-77
2023/08/04 03:05:40;;;;;;;20.60;11.30;;;;;;;24.33;75.63;94503.16;5061902;28;20662;-77
2023/08/04 03:08:06;;;;;;;17.20;11.60;;;;;;;24.39;75.48;94512.72;5064248;28;20602;-76
2023/08/04 03:10:31;;;;;;;16.55;11.23;;;;;;;24.34;75.47;94507.47;5066285;28;20181;-77
2023/08/04 03:12:57;;;;;;;19.90;11.10;;;;;;;24.37;75.39;94511.44;5064009;28;20768;-77
2023/08/04 03:15:22;;;;;;;11.38;9.18;;;;;;;24.30;75.41;94501.06;5064301;28;20193;-77
2023/08/04 03:17:49;;;;;;;14.98;10.70;;;;;;;24.31;75.60;94513.44;5057784;28;20233;-77
2023/08/04 03:20:15;;;;;;;28.45;16.60;;;;;;;24.21;75.78;94500.25;5057861;28;20253;-76
2023/08/04 03:22:40;;;;;;;16.55;11.73;;;;;;;24.24;75.68;94509.59;5057147;28;20265;-76
2023/08/04 03:25:06;;;;;;;23.83;13.05;;;;;;;24.23;75.84;94511.47;5062508;28;20641;-75
2023/08/04 03:27:31;;;;;;;34.00;19.83;;;;;;;24.22;75.90;94504.50;5060689;28;20191;-75
2023/08/04 03:29:57;;;;;;;24.10;14.70;;;;;;;24.13;75.61;94492.06;5066063;28;20182;-76
2023/08/04 03:32:22;;;;;;;18.35;12.25;;;;;;;24.18;75.58;94508.88;5066734;28;20217;-77
2023/08/04 03:34:48;;;;;;;21.80;14.93;;;;;;;24.03;75.82;94471.59;5064284;28;20182;-77
2023/08/04 03:37:13;;;;;;;19.38;12.80;;;;;;;24.21;75.82;94511.00;5062056;28;20179;-77
2023/08/04 03:39:38;;;;;;;21.70;11.60;;;;;;;24.22;75.45;94512.56;5061907;28;20232;-77
2023/08/04 03:42:04;;;;;;;21.80;10.88;;;;;;;24.21;75.30;94508.31;5061867;28;20195;-78
2023/08/04 03:44:29;;;;;;;18.30;12.50;;;;;;;24.24;75.17;94521.16;5056374;28;20199;-77
2023/08/04 03:46:55;;;;;;;16.55;11.32;;;;;;;24.24;75.40;94513.06;5063573;28;20173;-77
2023/08/04 03:49:20;;;;;;;24.48;11.70;;;;;;;24.27;75.54;94523.22;5065727;28;20175;-77
2023/08/04 03:51:45;;;;;;;19.20;10.68;;;;;;;24.29;75.12;94521.03;5059571;28;20915;-77
2023/08/04 03:54:11;;;;;;;20.38;11.65;;;;;;;24.25;75.30;94509.28;5057642;28;20171;-77
2023/08/04 03:56:36;;;;;;;19.95;11.20;;;;;;;24.36;74.92;94520.63;5061276;28;20214;-77
2023/08/04 03:59:02;;;;;;;30.58;11.43;;;;;;;24.43;75.08;94515.59;5060053;28;20182;-78
2023/08/04 04:01:28;;;;;;;20.70;11.57;;;;;;;24.50;74.34;94520.53;5063964;28;20182;-78
2023/08/04 04:03:53;;;;;;;19.58;10.93;;;;;;;24.58;74.43;94528.69;5063685;28;20230;-77
2023/08/04 04:06:19;;;;;;;18.17;10.95;;;;;;;24.66;74.24;94529.84;5056882;28;20174;-78
2023/08/04 04:08:45;;;;;;;23.73;11.70;;;;;;;24.76;74.18;94524.19;5062113;28;20256;-78
2023/08/04 04:11:10;;;;;;;25.75;12.00;;;;;;;24.86;73.79;94528.53;5059063;28;20167;-78
2023/08/04 04:13:36;;;;;;;24.88;11.30;;;;;;;24.96;72.90;94526.41;5063868;28;20663;-78
2023/08/04 04:16:01;;;;;;;22.83;11.57;;;;;;;25.06;73.40;94528.06;5062714;28;20175;-78
2023/08/04 04:18:27;;;;;;;15.55;10.18;;;;;;;25.17;73.36;94529.34;5063152;28;20182;-78
2023/08/04 04:20:52;;;;;;;26.60;11.80;;;;;;;25.28;72.77;94532.56;5057726;28;20178;-78
2023/08/04 04:23:17;;;;;;;22.20;12.68;;;;;;;25.38;73.47;94529.59;5063854;28;20202;-78
2023/08/04 04:25:43;;;;;;;26.02;17.10;;;;;;;25.46;73.00;94539.63;5063397;28;20339;-77
2023/08/04 04:28:08;;;;;;;33.13;20.45;;;;;;;25.59;72.29;94525.28;5060131;28;20170;-77
2023/08/04 04:30:33;;;;;;;22.60;12.15;;;;;;;25.89;71.27;94529.78;5064336;28;20641;-77
2023/08/04 04:32:59;;;;;;;26.77;13.45;;;;;;;26.17;70.63;94535.69;5054846;28;20182;-75
2023/08/04 04:35:24;;;;;;;25.35;11.95;;;;;;;26.46;69.44;94537.81;5061547;28;20542;-77
2023/08/04 04:37:50;;;;;;;22.90;12.50;;;;;;;26.71;67.46;94535.41;5057004;28;20224;-77
2023/08/04 04:40:15;;;;;;;24.67;12.05;;;;;;;26.98;66.37;94530.44;5058748;28;20185;-77
2023/08/04 04:42:40;;;;;;;20.38;11.10;;;;;;;27.29;66.15;94535.59;5057780;28;20173;-77
2023/08/04 04:45:07;;;;;;;16.05;10.13;;;;;;;27.71;64.98;94544.66;5062056;28;20194;-77
2023/08/04 04:47:32;;;;;;;21.95;12.48;;;;;;;28.05;64.27;94543.69;5060073;28;20170;-77
2023/08/04 04:49:57;;;;;;;16.60;10.18;;;;;;;28.40;63.44;94548.88;5055072;28;20258;-77
2023/08/04 04:52:35;;;;;;;17.58;10.95;;;;;;;28.74;62.02;94545.88;5061924;28;20186;-77
2023/08/04 04:55:01;;;;;;;17.00;10.40;;;;;;;29.22;60.05;94549.91;5064564;28;20182;-77
2023/08/04 04:57:27;;;;;;;17.60;10.00;;;;;;;29.57;58.70;94547.63;5055816;28;20639;-77
2023/08/04 04:59:52;;;;;;;34.30;14.82;;;;;;;29.91;57.66;94551.81;5059029;28;20307;-77
2023/08/04 05:02:18;;;;;;;18.98;12.85;;;;;;;30.26;56.28;94546.72;5060119;28;20197;-77
2023/08/04 05:04:44;;;;;;;22.35;14.20;;;;;;;30.72;55.40;94546.13;5062848;28;20601;-77
2023/08/04 05:07:10;;;;;;;23.60;13.13;;;;;;;31.22;53.93;94557.63;5061703;28;20182;-75
2023/08/04 05:09:35;;;;;;;16.20;9.88;;;;;;;31.66;52.78;94561.09;5054646;28;20174;-77
2023/08/04 05:12:00;;;;;;;20.90;12.13;;;;;;;32.07;50.40;94562.47;5063260;28;20182;-77
2023/08/04 05:14:26;;;;;;;19.20;11.40;;;;;;;32.43;49.56;94556.72;5061855;28;20206;-75
2023/08/04 05:16:51;;;;;;;12.93;9.95;;;;;;;32.92;49.19;94564.38;5063464;28;20167;-75
2023/08/04 05:19:16;;;;;;;20.10;11.38;;;;;;;33.39;47.17;94566.84;5065685;28;20218;-75
2023/08/04 05:21:42;;;;;;;15.20;11.50;;;;;;;33.80;46.43;94576.19;5062219;28;20578;-75
2023/08/04 05:24:07;;;;;;;14.02;9.73;;;;;;;34.25;45.46;94575.34;5065259;28;20202;-75
2023/08/04 05:26:33;;;;;;;16.50;11.45;;;;;;;34.55;44.64;94561.72;5053426;28;20183;-74
2023/08/04 05:28:58;;;;;;;17.40;12.00;;;;;;;34.98;43.75;94567.75;5059531;28;20253;-74
2023/08/04 05:31:23;;;;;;;15.48;10.80;;;;;;;35.52;42.27;94570.72;5058386;28;20636;-74
2023/08/04 05:33:49;;;;;;;15.95;8.25;;;;;;;35.99;42.06;94568.41;5056819;28;20252;-74
2023/08/04 05:36:14;;;;;;;17.48;10.15;;;;;;;36.35;40.21;94574.97;5061963;28;20178;-74
2023/08/04 05:38:40;;;;;;;13.52;8.90;;;;;;;36.72;39.27;94561.09;5058753;28;20182;-75
2023/08/04 05:41:05;;;;;;;13.48;8.90;;;;;;;36.95;38.51;94565.13;5063680;28;20179;-77
2023/08/04 05:43:31;;;;;;;18.85;9.50;;;;;;;37.28;38.08;94563.28;5068157;28;20209;-75
2023/08/04 05:46:02;;;;;;;14.57;9.00;;;;;;;37.56;37.93;94570.81;5068152;28;20210;-75
2023/08/04 05:48:31;;;;;;;12.18;10.23;;;;;;;37.76;36.96;94572.84;5056946;28;20211;-76
2023/08/04 05:50:57;;;;;;;17.75;9.57;;;;;;;37.64;36.32;94558.69;5050804;28;20560;-77
2023/08/04 05:53:22;;;;;;;15.73;8.95;;;;;;;37.50;37.67;94573.19;5066543;28;20660;-74
2023/08/04 05:55:48;;;;;;;14.82;9.27;;;;;;;37.28;37.76;94561.34;5059712;28;20244;-75
2023/08/04 05:58:13;;;;;;;17.70;8.85;;;;;;;37.00;37.57;94575.75;5066962;28;20173;-76
2023/08/04 06:00:38;;;;;;;16.77;10.25;;;;;;;36.74;38.32;94576.03;5069870;28;20672;-75
2023/08/04 06:03:04;;;;;;;13.63;9.27;;;;;;;36.66;39.01;94577.13;5061139;28;20207;-76
2023/08/04 06:05:30;;;;;;;13.10;8.68;;;;;;;36.43;39.48;94571.09;5048531;28;20552;-76
2023/08/04 06:07:55;;;;;;;18.20;10.80;;;;;;;36.30;38.88;94570.63;5049850;28;20309;-77
2023/08/04 06:10:21;;;;;;;17.10;10.75;;;;;;;36.07;39.29;94573.56;5062383;28;20658;-76
2023/08/04 06:12:48;;;;;;;12.15;9.73;;;;;;;36.07;39.67;94562.59;5054849;28;20175;-77
2023/08/04 06:15:13;;;;;;;16.00;10.32;;;;;;;35.85;40.73;94566.34;5060673;28;20182;-75
2023/08/04 06:17:40;;;;;;;16.40;10.65;;;;;;;35.74;40.65;94569.00;5052572;28;20175;-75
2023/08/04 06:20:07;;;;;;;17.05;10.98;;;;;;;35.45;41.66;94550.69;5051727;28;20182;-74
2023/08/04 06:22:32;;;;;;;15.73;10.35;;;;;;;35.47;41.68;94575.75;5055351;28;20642;-76
2023/08/04 06:24:58;;;;;;;14.02;9.20;;;;;;;35.43;42.50;94572.97;5053098;28;20234;-76
2023/08/04 06:27:23;;;;;;;11.10;9.05;;;;;;;35.27;41.98;94575.16;5063200;28;20181;-76
2023/08/04 06:29:50;;;;;;;17.88;10.30;;;;;;;35.26;41.78;94570.06;5057610;28;20179;-76
2023/08/04 06:32:16;;;;;;;17.45;11.13;;;;;;;35.22;42.28;94567.25;5066994;28;20178;-76
2023/08/04 06:34:41;;;;;;;19.85;9.23;;;;;;;35.21;42.53;94579.34;5066291;28;20174;-77
2023/08/04 06:37:07;;;;;;;15.38;9.65;;;;;;;35.28;41.38;94575.94;5060200;28;20199;-77
2023/08/04 06:39:32;;;;;;;14.57;9.80;;;;;;;35.11;42.97;94538.97;5071188;28;20186;-77
2023/08/04 06:41:58;;;;;;;10.32;9.23;;;;;;;35.37;42.26;94569.03;5066146;28;20558;-76
2023/08/04 06:44:23;;;;;;;16.77;9.73;;;;;;;35.22;40.33;94569.97;5063094;28;20658;-76
2023/08/04 06:46:49;;;;;;;15.65;11.00;;;;;;;34.50;42.26;94564.00;5062633;28;20265;-77
2023/08/04 06:49:14;;;;;;;20.15;10.30;;;;;;;34.28;43.67;94560.94;5063755;28;20293;-76
2023/08/04 06:51:39;;;;;;;18.60;10.02;;;;;;;34.19;44.21;94554.91;5062596;28;20175;-77
2023/08/04 06:54:05;;;;;;;15.13;9.27;;;;;;;34.45;43.27;94557.66;5055868;28;20182;-77
2023/08/04 06:56:30;;;;;;;15.95;9.70;;;;;;;34.61;44.66;94560.22;5060960;28;20174;-77
2023/08/04 06:58:56;;;;;;;16.50;10.18;;;;;;;34.86;42.92;94559.78;5064785;28;20173;-78
2023/08/04 07:01:21;;;;;;;18.60;11.07;;;;;;;34.96;41.73;94567.34;5068605;28;20178;-76
2023/08/04 07:03:49;;;;;;;19.85;12.05;;;;;;;35.18;42.35;94560.94;5063254;28;20312;-77
2023/08/04 07:06:15;;;;;;;17.90;9.73;;;;;;;34.96;41.08;94546.22;5061713;28;20181;-77
2023/08/04 07:08:41;;;;;;;11.88;9.40;;;;;;;34.99;41.35;94537.28;5058609;28;20172;-77
2023/08/04 07:11:17;;;;;;;15.35;8.95;;;;;;;35.29;41.48;94545.44;5056789;28;20187;-78
2023/08/04 07:13:43;;;;;;;15.80;10.30;;;;;;;35.45;40.35;94540.53;5062395;28;20175;-77
2023/08/04 07:16:10;;;;;;;13.45;8.98;;;;;;;35.49;41.13;94552.28;5067197;28;20258;-78
2023/08/04 07:18:36;;;;;;;24.10;11.07;;;;;;;35.50;40.08;94555.81;5068331;28;20248;-78
2023/08/04 07:21:12;;;;;;;16.08;10.18;;;;;;;35.54;42.02;94549.22;5061263;28;20210;-78
2023/08/04 07:23:39;;;;;;;15.98;9.23;;;;;;;35.90;41.59;94553.06;5059917;28;20191;-78
2023/08/04 07:26:05;;;;;;;11.68;8.25;;;;;;;36.27;40.07;94555.72;5061263;28;20241;-77
2023/08/04 07:28:32;;;;;;;16.17;10.13;;;;;;;36.16;39.82;94546.59;5065953;28;20178;-78
2023/08/04 07:30:59;;;;;;;22.77;10.57;;;;;;;36.32;40.12;94553.81;5064149;28;20163;-76
2023/08/04 07:33:25;;;;;;;20.58;10.85;;;;;;;36.43;39.10;94549.16;5061886;28;20167;-78
2023/08/04 07:35:57;;;;;;;10.30;9.15;;;;;;;36.52;38.85;94553.13;5059512;28;20634;-79
2023/08/04 07:38:23;;;;;;;14.48;9.32;;;;;;;36.48;38.84;94540.56;5058739;28;21011;-77
2023/08/04 07:40:49;;;;;;;20.63;13.68;;;;;;;36.59;38.45;94553.16;5059400;28;20171;-77
2023/08/04 07:43:15;;;;;;;13.30;8.93;;;;;;;36.85;38.05;94541.16;5065135;28;20174;-77
2023/08/04 07:45:40;;;;;;;11.10;7.80;;;;;;;36.88;37.81;94532.16;5063120;28;20611;-77
2023/08/04 07:48:06;;;;;;;10.25;8.00;;;;;;;37.22;37.41;94540.13;5060031;28;20194;-79
2023/08/04 07:50:31;;;;;;;11.65;7.40;;;;;;;37.53;36.44;94544.13;5064197;28;20232;-79
2023/08/04 07:53:25;;;;;;;12.98;8.77;;;;;;;37.59;35.89;94529.63;5063884;28;20171;-79
2023/08/04 07:56:03;;;;;;;15.25;8.60;;;;;;;37.93;35.62;94541.03;5062105;28;20171;-79
2023/08/04 07:58:29;;;;;;;13.00;7.95;;;;;;;38.13;34.97;94546.97;5057433;28;20627;-79
2023/08/04 08:00:54;;;;;;;11.38;8.27;;;;;;;38.31;35.44;94538.69;5064946;28;20174;-79
2023/08/04 08:03:20;;;;;;;16.90;7.60;;;;;;;38.30;34.23;94531.59;5056462;28;20292;-80
2023/08/04 08:05:47;;;;;;;10.05;7.70;;;;;;;38.49;34.34;94531.94;5059216;28;20168;-78
2023/08/04 08:08:12;;;;;;;14.60;7.35;;;;;;;38.65;33.58;94545.31;5061355;28;20221;-77
2023/08/04 08:10:38;;;;;;;12.43;7.47;;;;;;;38.56;33.42;94546.91;5065298;28;20203;-76
2023/08/04 08:13:03;;;;;;;10.27;7.68;;;;;;;38.55;33.84;94539.84;5066521;28;20656;-76
2023/08/04 08:15:29;;;;;;;13.73;8.77;;;;;;;38.62;33.82;94537.06;5062626;28;20220;-76
2023/08/04 08:17:54;;;;;;;11.30;7.25;;;;;;;38.68;34.60;94539.00;5062326;28;20171;-78
2023/08/04 08:20:19;;;;;;;8.98;7.38;;;;;;;38.63;33.57;94530.38;5062840;28;20174;-78
2023/08/04 08:22:45;;;;;;;7.40;6.38;;;;;;;38.55;32.36;94532.38;5062706;28;20189;-77
2023/08/04 08:25:12;;;;;;;11.43;6.65;;;;;;;38.10;32.72;94528.47;5063566;28;20195;-77
2023/08/04 08:27:38;;;;;;;7.88;7.05;;;;;;;37.87;34.58;94520.63;5057719;28;20183;-77
2023/08/04 08:30:04;;;;;;;11.25;7.32;;;;;;;38.01;34.04;94528.06;5065213;28;20186;-77
2023/08/04 08:32:29;;;;;;;9.63;6.38;;;;;;;37.63;33.16;94527.66;5064843;28;20186;-75
2023/08/04 08:34:54;;;;;;;6.65;6.05;;;;;;;37.47;33.41;94529.19;5058126;28;21020;-76
2023/08/04 08:37:20;;;;;;;6.70;6.03;;;;;;;37.40;33.19;94522.53;5057172;28;20175;-75
2023/08/04 08:39:45;;;;;;;8.23;6.35;;;;;;;37.37;33.38;94517.78;5056979;28;20555;-76
2023/08/04 08:42:10;;;;;;;10.30;6.38;;;;;;;36.76;34.96;94499.56;5053406;28;20175;-76
2023/08/04 08:44:36;;;;;;;6.65;6.05;;;;;;;37.03;35.25;94522.78;5057718;28;20185;-75
2023/08/04 08:47:01;;;;;;;7.47;6.63;;;;;;;36.70;35.13;94517.56;5068719;28;20178;-76
2023/08/04 08:49:31;;;;;;;8.07;6.28;;;;;;;37.13;35.32;94517.72;5069233;28;20185;-76
2023/08/04 08:51:58;;;;;;;8.00;6.00;;;;;;;36.85;34.56;94505.47;5069483;28;20261;-76
2023/08/04 08:54:24;;;;;;;12.43;6.68;;;;;;;36.75;35.46;94516.44;5069625;28;20174;-76
2023/08/04 08:56:52;;;;;;;11.75;6.82;;;;;;;36.61;35.09;94497.91;5068955;28;20684;-76
2023/08/04 08:59:18;;;;;;;6.82;6.13;;;;;;;36.65;34.56;94498.72;5068889;28;20703;-76
2023/08/04 09:01:44;;;;;;;9.05;6.57;;;;;;;36.67;35.25;94507.38;5069584;28;20182;-75
2023/08/04 09:04:09;;;;;;;10.30;6.55;;;;;;;36.92;35.02;94505.50;5068200;28;20222;-75
2023/08/04 09:06:35;;;;;;;7.90;5.85;;;;;;;37.36;35.52;94498.97;5069534;28;20589;-76
2023/08/04 09:09:02;;;;;;;7.05;5.80;;;;;;;37.40;32.55;94500.53;5069508;28;20211;-76
2023/08/04 09:11:29;;;;;;;8.90;6.00;;;;;;;37.12;33.69;94474.94;5069476;28;20178;-76
2023/08/04 09:13:55;;;;;;;6.68;5.82;;;;;;;36.81;34.23;94485.47;5053297;28;20254;-76
2023/08/04 09:16:34;;;;;;;11.73;6.35;;;;;;;36.94;34.63;94483.94;5049831;28;20630;-76
2023/08/04 09:19:07;;;;;;;11.82;6.90;;;;;;;37.06;35.37;94493.78;5058276;28;20296;-75
2023/08/04 09:21:34;;;;;;;7.80;6.72;;;;;;;36.98;35.23;94486.69;5067942;28;20560;-76
2023/08/04 09:24:01;;;;;;;9.32;6.43;;;;;;;36.95;34.33;94469.03;5069196;28;20193;-75
2023/08/04 09:26:42;;;;;;;8.35;6.60;;;;;;;37.01;35.24;94481.22;5069305;28;20178;-75
2023/08/04 09:29:07;;;;;;;8.77;5.85;;;;;;;37.15;35.06;94465.97;5069274;28;20181;-76
2023/08/04 09:31:37;;;;;;;6.22;5.68;;;;;;;36.57;35.07;94484.19;5068074;28;20178;-75
2023/08/04 09:34:05;;;;;;;9.30;6.57;;;;;;;36.52;36.03;94479.06;5069268;28;20696;-75
2023/08/04 09:36:31;;;;;;;6.95;6.25;;;;;;;35.97;35.91;94474.81;5069666;28;20261;-75
2023/08/04 09:39:04;;;;;;;7.57;5.95;;;;;;;35.77;36.51;94471.53;5069344;28;20687;-75
2023/08/04 09:41:34;;;;;;;7.38;6.68;;;;;;;35.79;37.32;94455.50;5069215;28;20178;-75
2023/08/04 09:44:05;;;;;;;11.10;7.43;;;;;;;35.97;37.71;94466.59;5069204;28;20237;-75
2023/08/04 09:46:30;;;;;;;8.00;6.10;;;;;;;36.17;37.55;94467.88;5069301;28;20694;-75
2023/08/04 09:48:59;;;;;;;7.60;6.40;;;;;;;36.32;36.31;94452.31;5063955;28;20182;-75
2023/08/04 09:51:25;;;;;;;6.80;6.13;;;;;;;36.56;35.91;94455.16;5049025;28;20665;-75
2023/08/04 09:53:54;;;;;;;9.05;6.45;;;;;;;36.58;35.74;94450.09;5049142;28;20175;-76
2023/08/04 09:56:21;;;;;;;12.30;7.25;;;;;;;36.10;35.89;94462.34;5049487;28;20213;-75
2023/08/04 09:58:48;;;;;;;7.65;6.60;;;;;;;35.76;36.76;94459.00;5053093;28;20221;-75
2023/08/04 10:01:14;;;;;;;8.70;6.72;;;;;;;35.56;38.03;94453.72;5052914;28;20175;-75
2023/08/04 10:03:41;;;;;;;7.38;6.63;;;;;;;35.67;36.72;94456.56;5052905;28;20219;-75
2023/08/04 10:06:07;;;;;;;8.20;6.70;;;;;;;35.53;37.52;94449.03;5052811;28;20175;-75
2023/08/04 10:08:39;;;;;;;10.32;6.15;;;;;;;35.61;37.22;94454.56;5052852;28;20241;-75
2023/08/04 10:11:05;;;;;;;7.88;6.68;;;;;;;35.70;36.98;94438.59;5052858;28;20164;-75
2023/08/04 10:13:33;;;;;;;11.57;7.03;;;;;;;35.86;37.31;94444.59;5052838;28;20164;-76
2023/08/04 10:16:03;;;;;;;8.77;6.88;;;;;;;35.82;36.60;94421.84;5052817;28;20177;-75
2023/08/04 10:18:48;;;;;;;6.78;6.07;;;;;;;36.09;35.32;94444.31;5052741;28;20291;-75
2023/08/04 10:21:16;;;;;;;7.30;6.57;;;;;;;35.76;35.20;94431.59;5052078;28;20249;-75
2023/08/04 10:23:41;;;;;;;8.95;6.72;;;;;;;35.73;35.98;94429.63;5052226;28;20194;-76
2023/08/04 10:26:10;;;;;;;8.18;6.05;;;;;;;35.85;35.81;94437.53;5052760;28;20620;-76
2023/08/04 10:29:01;;;;;;;7.38;6.68;;;;;;;35.88;34.71;94434.81;5052635;28;20175;-77
2023/08/04 10:31:51;;;;;;;9.50;6.35;;;;;;;35.96;34.95;94440.34;5053911;28;20257;-77
2023/08/04 10:34:31;;;;;;;8.95;6.03;;;;;;;35.34;34.65;94427.34;5053698;28;20662;-75
2023/08/04 10:37:11;;;;;;;7.53;6.55;;;;;;;35.33;35.28;94428.50;5053075;28;20181;-75
2023/08/04 10:39:44;;;;;;;9.10;6.40;;;;;;;35.39;35.12;94427.00;5057791;28;20206;-76
2023/08/04 10:42:12;;;;;;;7.85;6.43;;;;;;;35.55;36.20;94424.75;5060358;28;20175;-76
2023/08/04 10:44:47;;;;;;;13.27;6.22;;;;;;;35.69;34.89;94423.31;5052555;28;20191;-77
2023/08/04 10:47:12;;;;;;;13.00;6.70;;;;;;;35.72;35.61;94420.59;5053853;28;20680;-77
2023/08/04 10:49:38;;;;;;;7.18;6.47;;;;;;;35.72;34.45;94430.81;5055097;28;20184;-75
2023/08/04 10:52:04;;;;;;;7.85;6.82;;;;;;;35.66;33.94;94419.38;5059091;28;20179;-76
2023/08/04 10:54:29;;;;;;;6.53;5.93;;;;;;;35.62;34.44;94410.34;5073434;28;20167;-76
2023/08/04 10:56:55;;;;;;;6.35;5.65;;;;;;;35.80;34.04;94410.50;5070309;28;20705;-76
2023/08/04 10:59:20;;;;;;;6.88;6.18;;;;;;;35.70;33.62;94406.50;5051997;28;20175;-76
2023/08/04 11:01:47;;;;;;;9.48;6.93;;;;;;;35.44;34.16;94396.53;5069063;28;20219;-76
2023/08/04 11:04:14;;;;;;;7.53;6.53;;;;;;;35.21;34.66;94420.56;5058723;28;20694;-76
2023/08/04 11:06:40;;;;;;;8.48;6.85;;;;;;;34.90;35.43;94405.41;5056956;28;20183;-76
2023/08/04 11:09:05;;;;;;;8.07;6.15;;;;;;;34.85;35.80;94405.78;5066827;28;20174;-75
2023/08/04 11:11:31;;;;;;;9.02;6.18;;;;;;;34.88;35.25;94405.00;5061736;28;20643;-76
2023/08/04 11:13:57;;;;;;;6.93;6.20;;;;;;;34.79;34.98;94394.38;5057001;28;20171;-76
2023/08/04 11:16:25;;;;;;;9.35;5.45;;;;;;;34.71;35.52;94402.84;5063206;28;20173;-75
2023/08/04 11:18:53;;;;;;;6.88;6.13;;;;;;;34.65;34.69;94396.94;5067820;28;20172;-75